sensor_id;sensor_type;location;lat;lon;timestamp;pressure;altitude;pressure_sealevel;temperature;humidity
49723;BME280;43484;43.608;1.458;2023-01-31T00:01:22;101430.53;;;2.56;100.00
49723;BME280;43484;43.608;1.458;2023-01-31T00:03:57;101431.00;;;2.71;100.00
49723;BME280;43484;43.608;1.458;2023-01-31T00:06:36;101437.22;;;2.85;100.00
49723;BME280;43484;43.608;1.458;2023-01-31T00:09:05;101441.13;;;2.81;100.00
49723;BME280;43484;43.608;1.458;2023-01-31T00:11:32;101422.44;;;2.99;100.00
49723;BME280;43484;43.608;1.458;2023-01-31T00:14:00;101424.84;;;2.88;100.00
49723;BME280;43484;43.608;1.458;2023-01-31T00:16:27;101425.56;;;2.87;100.00
49723;BME280;43484;43.608;1.458;2023-01-31T00:18:54;101426.72;;;2.90;100.00
49723;BME280;43484;43.608;1.458;2023-01-31T00:21:23;101425.97;;;2.91;100.00
49723;BME280;43484;43.608;1.458;2023-01-31T00:23:51;101426.94;;;2.83;100.00
49723;BME280;43484;43.608;1.458;2023-01-31T00:26:20;101425.84;;;2.80;100.00
49723;BME280;43484;43.608;1.458;2023-01-31T00:28:49;101428.19;;;2.78;100.00
49723;BME280;43484;43.608;1.458;2023-01-31T00:31:16;101410.72;;;2.61;100.00
49723;BME280;43484;43.608;1.458;2023-01-31T00:33:45;101414.00;;;2.60;100.00
49723;BME280;43484;43.608;1.458;2023-01-31T00:36:15;101417.06;;;2.66;100.00
49723;BME280;43484;43.608;1.458;2023-01-31T00:38:42;101408.09;;;2.70;100.00
49723;BME280;43484;43.608;1.458;2023-01-31T00:41:10;101414.03;;;2.70;100.00
49723;BME280;43484;43.608;1.458;2023-01-31T00:43:37;101413.25;;;2.61;100.00
49723;BME280;43484;43.608;1.458;2023-01-31T00:46:04;101409.84;;;2.61;100.00
49723;BME280;43484;43.608;1.458;2023-01-31T00:48:30;101406.69;;;2.73;100.00
49723;BME280;43484;43.608;1.458;2023-01-31T00:50:57;101402.41;;;2.82;100.00
49723;BME280;43484;43.608;1.458;2023-01-31T00:53:24;101400.00;;;2.74;100.00
49723;BME280;43484;43.608;1.458;2023-01-31T00:55:54;101396.09;;;2.77;100.00
49723;BME280;43484;43.608;1.458;2023-01-31T00:58:21;101395.44;;;2.70;100.00
49723;BME280;43484;43.608;1.458;2023-01-31T01:00:48;101396.84;;;2.76;100.00
49723;BME280;43484;43.608;1.458;2023-01-31T01:03:14;101394.06;;;2.83;100.00
49723;BME280;43484;43.608;1.458;2023-01-31T01:05:41;101396.59;;;2.83;100.00
49723;BME280;43484;43.608;1.458;2023-01-31T01:08:07;101399.13;;;2.83;100.00
49723;BME280;43484;43.608;1.458;2023-01-31T01:10:34;101400.22;;;2.67;100.00
49723;BME280;43484;43.608;1.458;2023-01-31T01:13:02;101388.94;;;2.63;100.00
49723;BME280;43484;43.608;1.458;2023-01-31T01:15:31;101385.69;;;2.64;100.00
49723;BME280;43484;43.608;1.458;2023-01-31T01:17:58;101380.78;;;2.76;100.00
49723;BME280;43484;43.608;1.458;2023-01-31T01:20:24;101385.97;;;2.77;100.00
49723;BME280;43484;43.608;1.458;2023-01-31T01:22:51;101383.19;;;2.84;100.00
49723;BME280;43484;43.608;1.458;2023-01-31T01:25:17;101380.41;;;2.81;100.00
49723;BME280;43484;43.608;1.458;2023-01-31T01:27:44;101367.88;;;2.83;100.00
49723;BME280;43484;43.608;1.458;2023-01-31T01:30:11;101366.50;;;2.86;100.00
49723;BME280;43484;43.608;1.458;2023-01-31T01:32:38;101372.16;;;2.64;100.00
49723;BME280;43484;43.608;1.458;2023-01-31T01:35:05;101371.78;;;2.69;100.00
49723;BME280;43484;43.608;1.458;2023-01-31T01:37:32;101363.19;;;2.67;100.00
49723;BME280;43484;43.608;1.458;2023-01-31T01:39:59;101373.06;;;2.74;100.00
49723;BME280;43484;43.608;1.458;2023-01-31T01:42:26;101374.09;;;2.76;100.00
49723;BME280;43484;43.608;1.458;2023-01-31T01:44:58;101372.53;;;2.78;100.00
49723;BME280;43484;43.608;1.458;2023-01-31T01:53:21;101375.59;;;2.74;100.00
49723;BME280;43484;43.608;1.458;2023-01-31T01:55:55;101375.47;;;2.73;100.00
49723;BME280;43484;43.608;1.458;2023-01-31T01:58:29;101376.50;;;2.75;100.00
49723;BME280;43484;43.608;1.458;2023-01-31T02:00:57;101369.53;;;2.82;100.00
49723;BME280;43484;43.608;1.458;2023-01-31T02:03:25;101374.47;;;2.91;100.00
49723;BME280;43484;43.608;1.458;2023-01-31T02:06:00;101376.09;;;2.90;100.00
49723;BME280;43484;43.608;1.458;2023-01-31T02:08:31;101377.25;;;2.94;100.00
49723;BME280;43484;43.608;1.458;2023-01-31T02:11:19;101379.28;;;2.88;100.00
49723;BME280;43484;43.608;1.458;2023-01-31T02:13:48;101371.69;;;2.78;100.00
49723;BME280;43484;43.608;1.458;2023-01-31T02:16:16;101370.31;;;2.91;100.00
49723;BME280;43484;43.608;1.458;2023-01-31T02:18:44;101370.44;;;2.93;100.00
49723;BME280;43484;43.608;1.458;2023-01-31T02:27:14;101363.31;;;2.89;100.00
49723;BME280;43484;43.608;1.458;2023-01-31T02:35:30;101360.81;;;2.99;100.00
49723;BME280;43484;43.608;1.458;2023-01-31T02:38:38;101365.97;;;2.90;100.00
49723;BME280;43484;43.608;1.458;2023-01-31T02:43:57;101359.03;;;2.98;100.00
49723;BME280;43484;43.608;1.458;2023-01-31T02:54:50;101366.75;;;2.79;100.00
49723;BME280;43484;43.608;1.458;2023-01-31T02:57:37;101358.78;;;2.85;100.00
49723;BME280;43484;43.608;1.458;2023-01-31T03:00:05;101352.72;;;2.83;100.00
49723;BME280;43484;43.608;1.458;2023-01-31T03:02:33;101351.81;;;2.72;100.00
49723;BME280;43484;43.608;1.458;2023-01-31T03:04:59;101344.22;;;2.72;100.00
49723;BME280;43484;43.608;1.458;2023-01-31T03:07:29;101340.16;;;2.74;100.00
49723;BME280;43484;43.608;1.458;2023-01-31T03:12:52;101338.13;;;2.70;100.00
49723;BME280;43484;43.608;1.458;2023-01-31T03:18:44;101344.19;;;2.62;100.00
49723;BME280;43484;43.608;1.458;2023-01-31T03:21:15;101339.13;;;2.62;100.00
49723;BME280;43484;43.608;1.458;2023-01-31T03:23:48;101339.50;;;2.56;100.00
49723;BME280;43484;43.608;1.458;2023-01-31T03:26:18;101338.88;;;2.59;100.00
49723;BME280;43484;43.608;1.458;2023-01-31T03:28:47;101342.31;;;2.60;100.00
49723;BME280;43484;43.608;1.458;2023-01-31T03:31:23;101340.03;;;2.63;100.00
49723;BME280;43484;43.608;1.458;2023-01-31T03:33:53;101339.63;;;2.58;100.00
49723;BME280;43484;43.608;1.458;2023-01-31T03:39:15;101335.81;;;2.53;100.00
49723;BME280;43484;43.608;1.458;2023-01-31T03:41:59;101331.28;;;2.49;100.00
49723;BME280;43484;43.608;1.458;2023-01-31T03:44:38;101336.69;;;2.43;100.00
49723;BME280;43484;43.608;1.458;2023-01-31T03:47:14;101336.69;;;2.43;100.00
49723;BME280;43484;43.608;1.458;2023-01-31T03:49:45;101336.09;;;2.46;100.00
49723;BME280;43484;43.608;1.458;2023-01-31T03:52:19;101334.53;;;2.48;100.00
49723;BME280;43484;43.608;1.458;2023-01-31T03:54:57;101338.88;;;2.49;100.00
49723;BME280;43484;43.608;1.458;2023-01-31T03:57:32;101330.88;;;2.54;100.00
49723;BME280;43484;43.608;1.458;2023-01-31T04:00:04;101334.44;;;2.56;100.00
49723;BME280;43484;43.608;1.458;2023-01-31T04:02:35;101334.56;;;2.58;100.00
49723;BME280;43484;43.608;1.458;2023-01-31T04:05:07;101334.84;;;2.61;100.00
49723;BME280;43484;43.608;1.458;2023-01-31T04:07:35;101342.56;;;2.63;100.00
49723;BME280;43484;43.608;1.458;2023-01-31T04:10:04;101334.72;;;2.60;100.00
49723;BME280;43484;43.608;1.458;2023-01-31T04:12:36;101339.91;;;2.61;100.00
49723;BME280;43484;43.608;1.458;2023-01-31T04:15:04;101334.97;;;2.63;100.00
49723;BME280;43484;43.608;1.458;2023-01-31T04:17:31;101333.59;;;2.76;100.00
49723;BME280;43484;43.608;1.458;2023-01-31T04:19:58;101332.47;;;2.83;100.00
49723;BME280;43484;43.608;1.458;2023-01-31T04:22:25;101346.88;;;2.84;100.00
49723;BME280;43484;43.608;1.458;2023-01-31T04:24:52;101343.72;;;2.86;100.00
49723;BME280;43484;43.608;1.458;2023-01-31T04:27:19;101342.19;;;2.88;100.00
49723;BME280;43484;43.608;1.458;2023-01-31T04:29:45;101343.84;;;2.88;100.00
49723;BME280;43484;43.608;1.458;2023-01-31T04:32:12;101354.09;;;2.89;100.00
49723;BME280;43484;43.608;1.458;2023-01-31T04:34:38;101352.59;;;2.91;100.00
49723;BME280;43484;43.608;1.458;2023-01-31T04:37:05;101358.16;;;2.97;100.00
49723;BME280;43484;43.608;1.458;2023-01-31T04:39:32;101358.41;;;3.00;100.00
49723;BME280;43484;43.608;1.458;2023-01-31T04:41:58;101363.72;;;3.03;100.00
49723;BME280;43484;43.608;1.458;2023-01-31T04:44:25;101370.69;;;3.06;100.00
49723;BME280;43484;43.608;1.458;2023-01-31T04:46:54;101369.53;;;3.02;100.00
49723;BME280;43484;43.608;1.458;2023-01-31T04:49:21;101372.31;;;3.05;100.00
49723;BME280;43484;43.608;1.458;2023-01-31T04:51:48;101377.38;;;3.05;100.00
49723;BME280;43484;43.608;1.458;2023-01-31T04:54:15;101380.94;;;2.97;100.00
49723;BME280;43484;43.608;1.458;2023-01-31T04:56:41;101377.78;;;2.90;100.00
49723;BME280;43484;43.608;1.458;2023-01-31T04:59:08;101383.34;;;2.96;100.00
49723;BME280;43484;43.608;1.458;2023-01-31T05:01:34;101380.56;;;3.03;100.00
49723;BME280;43484;43.608;1.458;2023-01-31T05:04:01;101390.69;;;3.03;100.00
49723;BME280;43484;43.608;1.458;2023-01-31T05:06:28;101388.88;;;3.02;100.00
49723;BME280;43484;43.608;1.458;2023-01-31T05:08:54;101402.31;;;3.01;100.00
49723;BME280;43484;43.608;1.458;2023-01-31T05:11:21;101396.34;;;3.00;100.00
49723;BME280;43484;43.608;1.458;2023-01-31T05:13:47;101394.59;;;2.99;100.00
49723;BME280;43484;43.608;1.458;2023-01-31T05:16:14;101392.44;;;3.04;100.00
49723;BME280;43484;43.608;1.458;2023-01-31T05:18:41;101394.84;;;3.02;100.00
49723;BME280;43484;43.608;1.458;2023-01-31T05:21:07;101401.31;;;3.09;100.00
49723;BME280;43484;43.608;1.458;2023-01-31T05:23:34;101399.31;;;3.05;100.00
49723;BME280;43484;43.608;1.458;2023-01-31T05:26:01;101407.25;;;2.99;100.00
49723;BME280;43484;43.608;1.458;2023-01-31T05:28:28;101405.47;;;2.98;100.00
49723;BME280;43484;43.608;1.458;2023-01-31T05:31:01;101408.63;;;2.96;100.00
49723;BME280;43484;43.608;1.458;2023-01-31T05:33:28;101404.63;;;3.08;100.00
49723;BME280;43484;43.608;1.458;2023-01-31T05:35:57;101407.50;;;3.12;100.00
49723;BME280;43484;43.608;1.458;2023-01-31T05:38:25;101407.75;;;3.15;100.00
49723;BME280;43484;43.608;1.458;2023-01-31T05:40:54;101405.47;;;3.08;100.00
49723;BME280;43484;43.608;1.458;2023-01-31T05:43:21;101408.78;;;3.17;100.00
49723;BME280;43484;43.608;1.458;2023-01-31T05:45:48;101409.91;;;3.11;100.00
49723;BME280;43484;43.608;1.458;2023-01-31T05:48:15;101416.13;;;3.14;100.00
49723;BME280;43484;43.608;1.458;2023-01-31T05:50:42;101411.06;;;3.14;100.00
49723;BME280;43484;43.608;1.458;2023-01-31T05:53:08;101416.63;;;3.10;100.00
49723;BME280;43484;43.608;1.458;2023-01-31T05:55:36;101416.38;;;3.07;100.00
49723;BME280;43484;43.608;1.458;2023-01-31T05:58:03;101418.00;;;3.07;100.00
49723;BME280;43484;43.608;1.458;2023-01-31T06:00:30;101417.38;;;2.99;100.00
49723;BME280;43484;43.608;1.458;2023-01-31T06:02:57;101424.31;;;3.02;100.00
49723;BME280;43484;43.608;1.458;2023-01-31T06:05:25;101415.88;;;3.01;100.00
49723;BME280;43484;43.608;1.458;2023-01-31T06:07:55;101416.13;;;3.04;100.00
49723;BME280;43484;43.608;1.458;2023-01-31T06:10:22;101420.41;;;3.05;100.00
49723;BME280;43484;43.608;1.458;2023-01-31T06:12:48;101409.03;;;3.10;100.00
49723;BME280;43484;43.608;1.458;2023-01-31T06:15:15;101413.97;;;3.09;100.00
49723;BME280;43484;43.608;1.458;2023-01-31T06:17:42;101418.53;;;3.13;100.00
49723;BME280;43484;43.608;1.458;2023-01-31T06:20:09;101414.09;;;3.10;100.00
49723;BME280;43484;43.608;1.458;2023-01-31T06:22:36;101423.19;;;3.08;100.00
49723;BME280;43484;43.608;1.458;2023-01-31T06:25:02;101421.56;;;3.09;100.00
49723;BME280;43484;43.608;1.458;2023-01-31T06:27:31;101424.19;;;3.00;100.00
49723;BME280;43484;43.608;1.458;2023-01-31T06:29:58;101424.75;;;3.06;100.00
49723;BME280;43484;43.608;1.458;2023-01-31T06:32:25;101421.06;;;3.13;100.00
49723;BME280;43484;43.608;1.458;2023-01-31T06:34:52;101419.81;;;3.18;100.00
49723;BME280;43484;43.608;1.458;2023-01-31T06:37:18;101423.06;;;3.17;100.00
49723;BME280;43484;43.608;1.458;2023-01-31T06:39:45;101418.53;;;3.23;100.00
49723;BME280;43484;43.608;1.458;2023-01-31T06:42:11;101418.41;;;3.31;100.00
49723;BME280;43484;43.608;1.458;2023-01-31T06:44:38;101415.09;;;3.12;100.00
49723;BME280;43484;43.608;1.458;2023-01-31T06:47:04;101418.41;;;3.11;100.00
49723;BME280;43484;43.608;1.458;2023-01-31T06:49:31;101420.28;;;3.14;100.00
49723;BME280;43484;43.608;1.458;2023-01-31T06:51:57;101417.75;;;3.14;100.00
49723;BME280;43484;43.608;1.458;2023-01-31T06:54:24;101424.31;;;3.02;100.00
49723;BME280;43484;43.608;1.458;2023-01-31T06:56:51;101414.34;;;3.23;100.00
49723;BME280;43484;43.608;1.458;2023-01-31T06:59:17;101412.81;;;3.35;100.00
49723;BME280;43484;43.608;1.458;2023-01-31T07:01:44;101413.34;;;3.41;100.00
49723;BME280;43484;43.608;1.458;2023-01-31T07:04:11;101423.38;;;3.40;100.00
49723;BME280;43484;43.608;1.458;2023-01-31T07:06:37;101418.91;;;3.47;100.00
49723;BME280;43484;43.608;1.458;2023-01-31T07:09:04;101427.28;;;3.46;100.00
49723;BME280;43484;43.608;1.458;2023-01-31T07:11:31;101432.06;;;3.43;100.00
49723;BME280;43484;43.608;1.458;2023-01-31T07:13:57;101433.75;;;3.43;100.00
49723;BME280;43484;43.608;1.458;2023-01-31T07:16:24;101437.66;;;3.49;100.00
49723;BME280;43484;43.608;1.458;2023-01-31T07:18:52;101436.66;;;3.47;100.00
49723;BME280;43484;43.608;1.458;2023-01-31T07:21:21;101445.00;;;3.46;100.00
49723;BME280;43484;43.608;1.458;2023-01-31T07:23:47;101439.81;;;3.55;100.00
49723;BME280;43484;43.608;1.458;2023-01-31T07:26:14;101441.97;;;3.40;100.00
49723;BME280;43484;43.608;1.458;2023-01-31T07:28:41;101430.97;;;3.40;100.00
49723;BME280;43484;43.608;1.458;2023-01-31T07:31:10;101435.13;;;3.39;100.00
49723;BME280;43484;43.608;1.458;2023-01-31T07:33:38;101425.25;;;3.32;100.00
49723;BME280;43484;43.608;1.458;2023-01-31T07:36:06;101429.03;;;3.37;100.00
49723;BME280;43484;43.608;1.458;2023-01-31T07:38:33;101419.56;;;3.45;100.00
49723;BME280;43484;43.608;1.458;2023-01-31T07:41:02;101414.22;;;3.42;100.00
49723;BME280;43484;43.608;1.458;2023-01-31T07:43:30;101404.72;;;3.59;100.00
49723;BME280;43484;43.608;1.458;2023-01-31T07:45:57;101407.25;;;3.69;100.00
49723;BME280;43484;43.608;1.458;2023-01-31T07:48:24;101408.13;;;3.70;100.00
49723;BME280;43484;43.608;1.458;2023-01-31T07:51:00;101408.13;;;3.70;100.00
49723;BME280;43484;43.608;1.458;2023-01-31T07:53:29;101407.75;;;3.65;100.00
49723;BME280;43484;43.608;1.458;2023-01-31T07:56:08;101402.16;;;3.69;100.00
49723;BME280;43484;43.608;1.458;2023-01-31T07:58:36;101407.97;;;3.68;100.00
49723;BME280;43484;43.608;1.458;2023-01-31T08:01:03;101414.59;;;3.76;100.00
49723;BME280;43484;43.608;1.458;2023-01-31T08:03:50;101414.94;;;3.81;100.00
49723;BME280;43484;43.608;1.458;2023-01-31T08:06:17;101422.94;;;3.75;100.00
49723;BME280;43484;43.608;1.458;2023-01-31T08:08:44;101425.59;;;3.77;100.00
49723;BME280;43484;43.608;1.458;2023-01-31T08:11:11;101432.31;;;3.87;100.00
49723;BME280;43484;43.608;1.458;2023-01-31T08:13:38;101442.94;;;3.82;100.00
49723;BME280;43484;43.608;1.458;2023-01-31T08:16:06;101446.25;;;3.71;100.00
49723;BME280;43484;43.608;1.458;2023-01-31T08:18:35;101441.44;;;3.74;100.00
49723;BME280;43484;43.608;1.458;2023-01-31T08:21:06;101447.78;;;3.79;100.00
49723;BME280;43484;43.608;1.458;2023-01-31T08:23:34;101440.28;;;3.81;100.00
49723;BME280;43484;43.608;1.458;2023-01-31T08:26:06;101444.88;;;3.75;100.00
49723;BME280;43484;43.608;1.458;2023-01-31T08:28:35;101448.50;;;3.88;100.00
49723;BME280;43484;43.608;1.458;2023-01-31T08:31:03;101448.13;;;3.84;100.00
49723;BME280;43484;43.608;1.458;2023-01-31T08:33:36;101459.63;;;4.01;100.00
49723;BME280;43484;43.608;1.458;2023-01-31T08:36:16;101473.97;;;4.00;100.00
49723;BME280;43484;43.608;1.458;2023-01-31T08:38:43;101481.06;;;4.04;100.00
49723;BME280;43484;43.608;1.458;2023-01-31T08:41:11;101483.25;;;3.90;100.00
49723;BME280;43484;43.608;1.458;2023-01-31T08:43:37;101489.56;;;3.95;100.00
49723;BME280;43484;43.608;1.458;2023-01-31T08:46:23;101493.88;;;3.96;100.00
49723;BME280;43484;43.608;1.458;2023-01-31T08:48:50;101500.19;;;4.01;100.00
49723;BME280;43484;43.608;1.458;2023-01-31T08:51:16;101499.19;;;3.88;100.00
49723;BME280;43484;43.608;1.458;2023-01-31T08:53:43;101499.59;;;3.93;100.00
49723;BME280;43484;43.608;1.458;2023-01-31T08:56:12;101500.97;;;4.00;100.00
49723;BME280;43484;43.608;1.458;2023-01-31T08:58:40;101500.41;;;4.14;100.00
49723;BME280;43484;43.608;1.458;2023-01-31T09:01:11;101508.53;;;4.30;100.00
49723;BME280;43484;43.608;1.458;2023-01-31T09:03:39;101497.59;;;4.31;100.00
49723;BME280;43484;43.608;1.458;2023-01-31T09:06:17;101504.81;;;4.36;100.00
49723;BME280;43484;43.608;1.458;2023-01-31T09:08:44;101498.69;;;4.44;100.00
49723;BME280;43484;43.608;1.458;2023-01-31T09:11:13;101507.91;;;4.54;100.00
49723;BME280;43484;43.608;1.458;2023-01-31T09:13:42;101511.03;;;4.71;100.00
49723;BME280;43484;43.608;1.458;2023-01-31T09:16:11;101516.84;;;4.80;100.00
49723;BME280;43484;43.608;1.458;2023-01-31T09:18:39;101514.00;;;4.87;100.00
49723;BME280;43484;43.608;1.458;2023-01-31T09:21:15;101508.41;;;5.13;100.00
49723;BME280;43484;43.608;1.458;2023-01-31T09:23:42;101510.44;;;5.17;100.00
49723;BME280;43484;43.608;1.458;2023-01-31T09:26:12;101523.44;;;5.10;100.00
49723;BME280;43484;43.608;1.458;2023-01-31T09:28:40;101526.31;;;5.14;100.00
49723;BME280;43484;43.608;1.458;2023-01-31T09:31:13;101531.34;;;5.25;100.00
49723;BME280;43484;43.608;1.458;2023-01-31T09:33:41;101521.53;;;5.29;100.00
49723;BME280;43484;43.608;1.458;2023-01-31T09:36:13;101531.34;;;5.25;100.00
49723;BME280;43484;43.608;1.458;2023-01-31T09:38:40;101530.53;;;5.14;100.00
49723;BME280;43484;43.608;1.458;2023-01-31T09:41:31;101519.97;;;5.31;100.00
49723;BME280;43484;43.608;1.458;2023-01-31T09:44:06;101519.16;;;5.42;100.00
49723;BME280;43484;43.608;1.458;2023-01-31T09:46:40;101524.31;;;5.32;100.00
49723;BME280;43484;43.608;1.458;2023-01-31T09:49:15;101534.25;;;5.29;100.00
49723;BME280;43484;43.608;1.458;2023-01-31T09:51:45;101528.97;;;5.38;100.00
49723;BME280;43484;43.608;1.458;2023-01-31T09:54:19;101536.47;;;5.36;100.00
49723;BME280;43484;43.608;1.458;2023-01-31T09:57:05;101536.78;;;5.51;100.00
49723;BME280;43484;43.608;1.458;2023-01-31T10:10:53;101526.69;;;5.41;100.00
49723;BME280;43484;43.608;1.458;2023-01-31T10:13:28;101524.28;;;5.54;100.00
49723;BME280;43484;43.608;1.458;2023-01-31T10:18:51;101519.31;;;5.55;100.00
49723;BME280;43484;43.608;1.458;2023-01-31T10:21:25;101520.56;;;5.60;100.00
49723;BME280;43484;43.608;1.458;2023-01-31T10:23:55;101521.34;;;5.59;100.00
49723;BME280;43484;43.608;1.458;2023-01-31T10:26:26;101514.81;;;5.84;100.00
49723;BME280;43484;43.608;1.458;2023-01-31T10:29:01;101515.94;;;5.78;100.00
49723;BME280;43484;43.608;1.458;2023-01-31T10:31:42;101516.84;;;5.78;100.00
49723;BME280;43484;43.608;1.458;2023-01-31T10:34:29;101515.69;;;5.63;100.00
49723;BME280;43484;43.608;1.458;2023-01-31T10:39:37;101511.88;;;5.80;100.00
49723;BME280;43484;43.608;1.458;2023-01-31T10:45:22;101509.50;;;5.93;100.00
49723;BME280;43484;43.608;1.458;2023-01-31T10:56:45;101486.31;;;6.34;100.00
49723;BME280;43484;43.608;1.458;2023-01-31T10:59:24;101482.56;;;6.29;100.00
49723;BME280;43484;43.608;1.458;2023-01-31T11:01:51;101483.66;;;6.33;100.00
49723;BME280;43484;43.608;1.458;2023-01-31T11:06:50;101476.44;;;6.51;100.00
49723;BME280;43484;43.608;1.458;2023-01-31T11:09:17;101465.03;;;6.69;100.00
49723;BME280;43484;43.608;1.458;2023-01-31T11:11:56;101465.91;;;6.69;100.00
49723;BME280;43484;43.608;1.458;2023-01-31T11:14:22;101454.03;;;6.81;100.00
49723;BME280;43484;43.608;1.458;2023-01-31T11:16:57;101451.25;;;6.90;100.00
49723;BME280;43484;43.608;1.458;2023-01-31T11:19:33;101452.47;;;6.95;100.00
49723;BME280;43484;43.608;1.458;2023-01-31T11:22:01;101450.13;;;6.98;100.00
49723;BME280;43484;43.608;1.458;2023-01-31T11:24:31;101448.41;;;7.10;100.00
49723;BME280;43484;43.608;1.458;2023-01-31T11:27:02;101439.28;;;7.13;100.00
49723;BME280;43484;43.608;1.458;2023-01-31T11:29:45;101446.69;;;7.46;100.00
49723;BME280;43484;43.608;1.458;2023-01-31T11:32:20;101445.47;;;7.66;100.00
49723;BME280;43484;43.608;1.458;2023-01-31T11:37:57;101433.88;;;7.71;100.00
49723;BME280;43484;43.608;1.458;2023-01-31T11:40:31;101434.59;;;7.82;100.00
49723;BME280;43484;43.608;1.458;2023-01-31T11:43:03;101431.16;;;7.68;100.00
49723;BME280;43484;43.608;1.458;2023-01-31T11:45:32;101431.50;;;7.61;100.00
49723;BME280;43484;43.608;1.458;2023-01-31T11:48:16;101425.59;;;7.87;100.00
49723;BME280;43484;43.608;1.458;2023-01-31T11:50:49;101418.81;;;8.00;100.00
49723;BME280;43484;43.608;1.458;2023-01-31T11:53:21;101418.59;;;7.97;100.00
49723;BME280;43484;43.608;1.458;2023-01-31T11:55:51;101416.66;;;8.19;100.00
49723;BME280;43484;43.608;1.458;2023-01-31T11:58:38;101414.25;;;8.34;100.00
49723;BME280;43484;43.608;1.458;2023-01-31T12:01:13;101412.25;;;8.04;100.00
49723;BME280;43484;43.608;1.458;2023-01-31T12:03:50;101414.69;;;8.02;100.00
49723;BME280;43484;43.608;1.458;2023-01-31T12:06:30;101410.78;;;8.20;100.00
49723;BME280;43484;43.608;1.458;2023-01-31T12:08:58;101401.78;;;8.25;100.00
49723;BME280;43484;43.608;1.458;2023-01-31T12:11:34;101399.97;;;8.24;100.00
49723;BME280;43484;43.608;1.458;2023-01-31T12:14:12;101400.97;;;8.26;100.00
49723;BME280;43484;43.608;1.458;2023-01-31T12:16:39;101405.66;;;8.07;100.00
49723;BME280;43484;43.608;1.458;2023-01-31T12:22:08;101400.56;;;8.33;100.00
49723;BME280;43484;43.608;1.458;2023-01-31T12:32:45;101381.00;;;8.21;100.00
49723;BME280;43484;43.608;1.458;2023-01-31T12:35:34;101376.69;;;8.20;100.00
49723;BME280;43484;43.608;1.458;2023-01-31T12:49:26;101365.97;;;8.51;100.00
49723;BME280;43484;43.608;1.458;2023-01-31T12:51:58;101363.19;;;8.61;100.00
49723;BME280;43484;43.608;1.458;2023-01-31T13:06:09;101355.78;;;8.38;100.00
49723;BME280;43484;43.608;1.458;2023-01-31T13:08:52;101348.00;;;8.50;100.00
49723;BME280;43484;43.608;1.458;2023-01-31T13:11:55;101338.72;;;8.65;100.00
49723;BME280;43484;43.608;1.458;2023-01-31T13:14:25;101340.78;;;8.70;100.00
49723;BME280;43484;43.608;1.458;2023-01-31T13:16:56;101336.41;;;8.55;100.00
49723;BME280;43484;43.608;1.458;2023-01-31T13:19:48;101333.94;;;8.56;100.00
49723;BME280;43484;43.608;1.458;2023-01-31T13:22:21;101339.38;;;8.75;100.00
49723;BME280;43484;43.608;1.458;2023-01-31T13:25:22;101334.72;;;8.83;100.00
49723;BME280;43484;43.608;1.458;2023-01-31T13:28:23;101328.22;;;8.60;100.00
49723;BME280;43484;43.608;1.458;2023-01-31T13:30:55;101328.19;;;8.88;100.00
49723;BME280;43484;43.608;1.458;2023-01-31T13:38:43;101316.41;;;8.62;100.00
49723;BME280;43484;43.608;1.458;2023-01-31T13:41:36;101308.97;;;8.65;100.00
49723;BME280;43484;43.608;1.458;2023-01-31T13:44:05;101308.56;;;8.87;100.00
49723;BME280;43484;43.608;1.458;2023-01-31T13:46:44;101307.16;;;8.92;100.00
49723;BME280;43484;43.608;1.458;2023-01-31T13:51:57;101295.44;;;8.96;100.00
49723;BME280;43484;43.608;1.458;2023-01-31T13:54:35;101296.50;;;9.14;100.00
49723;BME280;43484;43.608;1.458;2023-01-31T13:57:03;101304.69;;;8.94;100.00
49723;BME280;43484;43.608;1.458;2023-01-31T13:59:33;101300.97;;;8.88;100.00
49723;BME280;43484;43.608;1.458;2023-01-31T14:02:14;101299.75;;;8.97;100.00
49723;BME280;43484;43.608;1.458;2023-01-31T14:04:42;101294.38;;;8.92;100.00
49723;BME280;43484;43.608;1.458;2023-01-31T14:09:41;101294.03;;;9.01;100.00
49723;BME280;43484;43.608;1.458;2023-01-31T14:14:37;101305.59;;;9.09;100.00
49723;BME280;43484;43.608;1.458;2023-01-31T14:22:35;101300.72;;;8.99;100.00
49723;BME280;43484;43.608;1.458;2023-01-31T14:30:43;101310.97;;;8.99;100.00
49723;BME280;43484;43.608;1.458;2023-01-31T14:44:24;101313.38;;;8.82;100.00
49723;BME280;43484;43.608;1.458;2023-01-31T14:50:16;101308.66;;;9.03;100.00
49723;BME280;43484;43.608;1.458;2023-01-31T14:58:20;101310.94;;;8.84;100.00
49723;BME280;43484;43.608;1.458;2023-01-31T15:00:58;101309.72;;;8.92;100.00
49723;BME280;43484;43.608;1.458;2023-01-31T15:06:26;101312.72;;;9.00;100.00
49723;BME280;43484;43.608;1.458;2023-01-31T15:11:43;101313.25;;;9.23;100.00
49723;BME280;43484;43.608;1.458;2023-01-31T15:17:06;101323.16;;;9.17;100.00
49723;BME280;43484;43.608;1.458;2023-01-31T15:22:29;101321.91;;;9.11;100.00
49723;BME280;43484;43.608;1.458;2023-01-31T15:25:04;101320.25;;;9.26;100.00
49723;BME280;43484;43.608;1.458;2023-01-31T15:27:34;101312.03;;;9.31;100.00
49723;BME280;43484;43.608;1.458;2023-01-31T15:30:10;101313.63;;;9.29;100.00
49723;BME280;43484;43.608;1.458;2023-01-31T15:32:48;101321.56;;;9.19;100.00
49723;BME280;43484;43.608;1.458;2023-01-31T15:35:22;101318.19;;;9.20;100.00
49723;BME280;43484;43.608;1.458;2023-01-31T15:38:00;101320.41;;;9.14;100.00
49723;BME280;43484;43.608;1.458;2023-01-31T15:40:29;101328.84;;;9.13;100.00
49723;BME280;43484;43.608;1.458;2023-01-31T15:43:15;101319.34;;;9.40;100.00
49723;BME280;43484;43.608;1.458;2023-01-31T15:45:42;101317.66;;;9.55;100.00
49723;BME280;43484;43.608;1.458;2023-01-31T15:48:12;101319.00;;;9.48;100.00
49723;BME280;43484;43.608;1.458;2023-01-31T15:50:55;101315.94;;;9.39;100.00